createdAt,value
2018-06-13T00:00:35.990Z,15.03
2018-06-13T00:03:35.924Z,15.03
2018-06-13T00:04:35.897Z,14.93
2018-06-13T00:05:36.197Z,14.96
2018-06-13T00:06:35.875Z,14.96
2018-06-13T00:07:35.960Z,14.93
2018-06-13T00:08:35.898Z,14.96
2018-06-13T00:09:36.280Z,14.90
2018-06-13T00:10:35.879Z,14.95
2018-06-13T00:11:36.215Z,14.99
2018-06-13T00:12:36.192Z,14.92
2018-06-13T00:13:35.791Z,14.92
2018-06-13T00:14:35.819Z,14.95
2018-06-13T00:16:35.730Z,14.92
2018-06-13T00:17:35.724Z,14.87
2018-06-13T00:18:36.003Z,14.97
2018-06-13T00:19:35.694Z,14.96
2018-06-13T00:20:35.724Z,14.87
2018-06-13T00:21:35.649Z,14.90
2018-06-13T00:22:35.652Z,14.95
2018-06-13T00:23:35.740Z,14.92
2018-06-13T00:24:35.611Z,14.95
2018-06-13T00:25:35.996Z,14.96
2018-06-13T00:26:35.641Z,14.90
2018-06-13T00:27:35.576Z,14.85
2018-06-13T00:28:35.569Z,14.85
2018-06-13T00:29:35.552Z,14.82
2018-06-13T00:30:35.520Z,14.85
2018-06-13T00:31:35.608Z,14.93
2018-06-13T00:32:35.891Z,14.89
2018-06-13T00:33:35.478Z,14.87
2018-06-13T00:34:35.457Z,14.85
2018-06-13T00:35:35.468Z,14.86
2018-06-13T00:36:35.432Z,14.83
2018-06-13T00:37:35.478Z,14.78
2018-06-13T00:38:35.455Z,14.74
2018-06-13T00:39:35.689Z,14.71
2018-06-13T00:40:35.375Z,14.78
2018-06-13T00:41:35.390Z,14.74
2018-06-13T00:42:35.361Z,14.78
2018-06-13T00:43:35.320Z,14.70
2018-06-13T00:44:35.358Z,14.77
2018-06-13T00:45:35.479Z,14.78
2018-06-13T00:46:35.571Z,14.82
2018-06-13T00:47:35.269Z,14.79
2018-06-13T00:48:35.258Z,14.74
2018-06-13T00:49:35.231Z,14.79
2018-06-13T00:50:35.423Z,14.77
2018-06-13T00:51:35.210Z,14.83
2018-06-13T00:52:35.192Z,14.79
2018-06-13T00:53:35.470Z,14.73
2018-06-13T00:54:35.161Z,14.73
2018-06-13T00:55:35.141Z,14.74
2018-06-13T00:56:35.183Z,14.74
2018-06-13T00:57:35.134Z,14.77
2018-06-13T00:58:35.095Z,14.78
2018-06-13T00:59:35.082Z,14.73
2018-06-13T01:00:35.369Z,14.77
2018-06-13T01:01:35.545Z,14.71
2018-06-13T01:02:35.073Z,14.66
2018-06-13T01:03:35.201Z,14.71
2018-06-13T01:04:34.998Z,14.74
2018-06-13T01:05:34.983Z,14.64
2018-06-13T01:06:35.276Z,14.67
2018-06-13T01:07:34.955Z,14.74
2018-06-13T01:08:34.985Z,14.66
2018-06-13T01:09:34.916Z,14.67
2018-06-13T01:10:34.906Z,14.64
2018-06-13T01:11:34.892Z,14.74
2018-06-13T01:12:35.175Z,14.61
2018-06-13T01:13:34.855Z,14.64
2018-06-13T01:14:35.282Z,14.66
2018-06-13T01:15:34.852Z,14.64
2018-06-13T01:16:34.824Z,14.56
2018-06-13T01:18:35.098Z,14.56
2018-06-13T01:19:34.785Z,14.61
2018-06-13T01:20:34.814Z,14.58
2018-06-13T01:22:34.733Z,14.56
2018-06-13T01:23:34.713Z,14.44
2018-06-13T01:24:34.999Z,14.55
2018-06-13T01:25:34.697Z,14.56
2018-06-13T01:26:34.720Z,14.58
2018-06-13T01:27:34.653Z,14.55
2018-06-13T01:29:34.672Z,14.51
2018-06-13T01:30:34.602Z,14.52
2018-06-13T01:31:34.946Z,14.51
2018-06-13T01:32:34.654Z,14.52
2018-06-13T01:33:34.567Z,14.55
2018-06-13T01:34:34.556Z,14.55
2018-06-13T01:35:34.539Z,14.49
2018-06-13T01:36:34.643Z,14.53
2018-06-13T01:37:34.792Z,14.53
2018-06-13T01:38:34.611Z,14.48
2018-06-13T01:39:34.575Z,14.40
2018-06-13T01:40:34.529Z,14.48
2018-06-13T01:41:34.438Z,14.36
2018-06-13T01:42:34.425Z,14.31
2018-06-13T01:43:34.713Z,14.36
2018-06-13T01:44:34.456Z,14.34
2018-06-13T01:45:34.380Z,14.28
2018-06-13T01:46:34.366Z,14.30
2018-06-13T01:47:34.395Z,14.26
2018-06-13T01:48:34.329Z,14.30
2018-06-13T01:49:34.317Z,14.30
2018-06-13T01:50:34.681Z,14.19
2018-06-13T01:51:34.284Z,14.31
2018-06-13T01:52:34.289Z,14.16
2018-06-13T01:53:34.295Z,14.16
2018-06-13T01:54:34.240Z,14.22
2018-06-13T01:55:34.320Z,14.18
2018-06-13T01:56:34.637Z,14.13
2018-06-13T01:57:34.588Z,14.11
2018-06-13T01:58:34.653Z,14.04
2018-06-13T01:59:34.233Z,14.05
2018-06-13T02:00:34.157Z,14.01
2018-06-13T02:01:34.131Z,14.01
2018-06-13T02:02:34.343Z,14.01
2018-06-13T02:03:34.099Z,13.93
2018-06-13T02:04:34.379Z,13.98
2018-06-13T02:05:34.124Z,13.91
2018-06-13T02:06:34.270Z,13.86
2018-06-13T02:07:34.038Z,13.93
2018-06-13T02:08:34.070Z,13.85
2018-06-13T02:09:34.061Z,13.82
2018-06-13T02:10:34.065Z,13.86
2018-06-13T02:11:34.275Z,13.82
2018-06-13T02:12:33.957Z,13.80
2018-06-13T02:13:33.943Z,13.86
2018-06-13T02:14:33.975Z,13.85
2018-06-13T02:15:33.911Z,13.80
2018-06-13T02:16:33.944Z,13.71
2018-06-13T02:17:33.880Z,13.75
2018-06-13T02:18:34.158Z,13.79
2018-06-13T02:19:33.839Z,13.78
2018-06-13T02:20:33.880Z,13.83
2018-06-13T02:21:33.830Z,13.80
2018-06-13T02:22:33.904Z,13.83
2018-06-13T02:23:33.797Z,13.79
2018-06-13T02:24:33.871Z,13.82
2018-06-13T02:25:34.054Z,13.76
2018-06-13T02:26:33.955Z,13.78
2018-06-13T02:27:33.724Z,13.71
2018-06-13T02:28:33.705Z,13.67
2018-06-13T02:29:33.689Z,13.73
2018-06-13T02:30:33.687Z,13.67
2018-06-13T02:31:33.668Z,13.61
2018-06-13T02:32:34.007Z,13.64
2018-06-13T02:33:33.625Z,13.65
2018-06-13T02:34:33.610Z,13.60
2018-06-13T02:35:33.595Z,13.61
2018-06-13T02:36:33.571Z,13.65
2018-06-13T02:37:33.648Z,13.61
2018-06-13T02:38:33.970Z,13.63
2018-06-13T02:40:33.592Z,13.61
2018-06-13T02:41:33.502Z,13.64
2018-06-13T02:42:33.485Z,13.64
2018-06-13T02:43:33.471Z,13.64
2018-06-13T02:44:33.795Z,13.64
2018-06-13T02:45:33.482Z,13.64
2018-06-13T02:46:33.433Z,13.53
2018-06-13T02:47:33.510Z,13.47
2018-06-13T02:48:33.410Z,13.54
2018-06-13T02:49:33.379Z,13.54
2018-06-13T02:50:33.707Z,13.57
2018-06-13T02:52:33.375Z,13.55
2018-06-13T02:53:33.327Z,13.58
2018-06-13T02:54:33.305Z,13.58
2018-06-13T02:55:33.269Z,13.58
2018-06-13T02:56:33.608Z,13.55
2018-06-13T02:57:33.244Z,13.49
2018-06-13T02:58:33.226Z,13.47
2018-06-13T02:59:33.213Z,13.45
2018-06-13T03:00:34.168Z,13.46
2018-06-13T03:01:33.192Z,13.54
2018-06-13T03:02:33.627Z,13.55
2018-06-13T03:03:33.149Z,13.54
2018-06-13T03:04:33.139Z,13.57
2018-06-13T03:05:33.111Z,13.57
2018-06-13T03:06:33.102Z,13.57
2018-06-13T03:07:33.150Z,13.55
2018-06-13T03:08:33.432Z,13.55
2018-06-13T03:09:33.041Z,13.54
2018-06-13T03:10:33.112Z,13.55
2018-06-13T03:11:33.033Z,13.47
2018-06-13T03:12:33.105Z,13.51
2018-06-13T03:13:32.978Z,13.55
2018-06-13T03:14:33.021Z,13.57
2018-06-13T03:15:33.256Z,13.51
2018-06-13T03:16:32.935Z,13.54
2018-06-13T03:17:32.916Z,13.64
2018-06-13T03:18:32.945Z,13.51
2018-06-13T03:19:32.979Z,13.60
2018-06-13T03:20:32.934Z,13.54
2018-06-13T03:21:32.851Z,13.43
2018-06-13T03:22:33.147Z,13.55
2018-06-13T03:23:32.839Z,13.58
2018-06-13T03:24:32.823Z,13.61
2018-06-13T03:26:32.833Z,13.49
2018-06-13T03:27:32.767Z,13.57
2018-06-13T03:28:32.756Z,13.61
2018-06-13T03:29:33.024Z,13.53
2018-06-13T03:30:32.719Z,13.53
2018-06-13T03:31:32.794Z,13.58
2018-06-13T03:32:32.736Z,13.51
2018-06-13T03:33:32.664Z,13.46
2018-06-13T03:34:32.658Z,13.53
2018-06-13T03:35:32.637Z,13.55
2018-06-13T03:36:32.916Z,13.63
2018-06-13T03:37:32.600Z,13.57
2018-06-13T03:38:32.638Z,13.45
2018-06-13T03:39:32.580Z,13.54
2018-06-13T03:40:32.548Z,13.60
2018-06-13T03:41:32.588Z,13.57
2018-06-13T03:42:32.576Z,13.55
2018-06-13T03:43:32.818Z,13.57
2018-06-13T03:44:32.540Z,13.64
2018-06-13T03:45:32.529Z,13.55
2018-06-13T03:46:32.469Z,13.57
2018-06-13T03:47:32.443Z,13.49
2018-06-13T03:48:32.434Z,13.57
2018-06-13T03:49:32.417Z,13.60
2018-06-13T03:50:32.741Z,13.58
2018-06-13T03:51:32.379Z,13.58
2018-06-13T03:52:32.372Z,13.55
2018-06-13T03:53:32.394Z,13.61
2018-06-13T03:54:32.344Z,13.51
2018-06-13T03:55:32.313Z,13.57
2018-06-13T03:56:32.444Z,13.60
2018-06-13T03:57:32.585Z,13.57
2018-06-13T03:58:32.385Z,13.46
2018-06-13T04:00:32.241Z,13.51
2018-06-13T04:01:32.219Z,13.45
2018-06-13T04:02:32.254Z,13.46
2018-06-13T04:03:32.486Z,13.46
2018-06-13T04:04:32.169Z,13.45
2018-06-13T04:05:32.385Z,13.42
2018-06-13T04:06:32.136Z,13.39
2018-06-13T04:07:32.125Z,13.47
2018-06-13T04:08:32.154Z,13.42
2018-06-13T04:09:32.489Z,13.40
2018-06-13T04:10:32.088Z,13.36
2018-06-13T04:11:32.061Z,13.35
2018-06-13T04:12:32.047Z,13.40
2018-06-13T04:13:32.025Z,13.40
2018-06-13T04:14:32.058Z,13.29
2018-06-13T04:15:32.299Z,13.35
2018-06-13T04:16:31.983Z,13.29
2018-06-13T04:17:32.746Z,13.35
2018-06-13T04:18:32.090Z,13.23
2018-06-13T04:19:32.291Z,13.21
2018-06-13T04:20:31.980Z,13.21
2018-06-13T04:21:32.226Z,13.20
2018-06-13T04:22:31.947Z,13.21
2018-06-13T04:23:31.906Z,13.23
2018-06-13T04:24:31.872Z,13.20
2018-06-13T04:25:31.844Z,13.13
2018-06-13T04:26:31.872Z,13.06
2018-06-13T04:27:32.102Z,13.08
2018-06-13T04:28:31.799Z,13.09
2018-06-13T04:29:31.773Z,13.08
2018-06-13T04:30:31.755Z,13.05
2018-06-13T04:31:32.091Z,13.05
2018-06-13T04:32:31.904Z,13.06
2018-06-13T04:33:32.005Z,13.09
2018-06-13T04:34:31.733Z,13.01
2018-06-13T04:35:31.680Z,13.11
2018-06-13T04:36:31.652Z,12.99
2018-06-13T04:37:31.640Z,13.04
2018-06-13T04:38:31.671Z,13.09
2018-06-13T04:39:31.912Z,12.98
2018-06-13T04:40:31.597Z,12.99
2018-06-13T04:41:31.571Z,13.01
2018-06-13T04:42:31.663Z,13.06
2018-06-13T04:43:31.604Z,12.99
2018-06-13T04:44:31.579Z,13.01
2018-06-13T04:45:31.525Z,13.02
2018-06-13T04:46:31.589Z,13.01
2018-06-13T04:47:31.473Z,13.04
2018-06-13T04:48:31.460Z,13.11
2018-06-13T04:49:31.463Z,13.04
2018-06-13T04:51:31.776Z,13.14
2018-06-13T04:52:31.395Z,13.13
2018-06-13T04:53:31.566Z,13.19
2018-06-13T04:54:31.360Z,13.14
2018-06-13T04:55:32.492Z,13.14
2018-06-13T04:56:31.714Z,13.16
2018-06-13T04:57:31.383Z,13.14
2018-06-13T04:58:31.623Z,13.11
2018-06-13T04:59:31.313Z,13.20
2018-06-13T05:00:31.265Z,13.23
2018-06-13T05:01:31.655Z,13.27
2018-06-13T05:02:31.238Z,13.16
2018-06-13T05:03:31.283Z,13.14
2018-06-13T05:04:31.211Z,13.23
2018-06-13T05:05:31.535Z,13.23
2018-06-13T05:06:31.172Z,13.32
2018-06-13T05:07:31.159Z,13.23
2018-06-13T05:08:31.142Z,13.36
2018-06-13T05:09:31.170Z,13.19
2018-06-13T05:10:31.099Z,13.21
2018-06-13T05:11:31.189Z,13.29
2018-06-13T05:12:31.375Z,13.21
2018-06-13T05:14:31.423Z,13.32
2018-06-13T05:16:31.447Z,13.29
2018-06-13T05:17:30.991Z,13.30
2018-06-13T05:18:30.980Z,13.29
2018-06-13T05:19:31.353Z,13.24
2018-06-13T05:20:30.943Z,13.21
2018-06-13T05:21:30.976Z,13.20
2018-06-13T05:22:30.970Z,13.23
2018-06-13T05:23:31.146Z,13.20
2018-06-13T05:24:31.071Z,13.20
2018-06-13T05:25:31.721Z,13.24
2018-06-13T05:26:31.160Z,13.21
2018-06-13T05:27:30.920Z,13.19
2018-06-13T05:28:30.884Z,13.17
2018-06-13T05:29:30.916Z,13.21
2018-06-13T05:30:30.784Z,13.27
2018-06-13T05:31:30.839Z,13.27
2018-06-13T05:32:31.077Z,13.30
2018-06-13T05:34:30.897Z,13.32
2018-06-13T05:35:31.001Z,13.39
2018-06-13T05:36:30.697Z,13.39
2018-06-13T05:37:30.678Z,13.43
2018-06-13T05:38:31.044Z,13.39
2018-06-13T05:39:30.641Z,13.40
2018-06-13T05:40:30.678Z,13.39
2018-06-13T05:41:30.611Z,13.47
2018-06-13T05:42:30.598Z,13.45
2018-06-13T05:43:30.577Z,13.51
2018-06-13T05:44:30.886Z,13.54
2018-06-13T05:45:30.562Z,13.46
2018-06-13T05:46:30.592Z,13.51
2018-06-13T05:48:30.516Z,13.55
2018-06-13T05:49:30.485Z,13.47
2018-06-13T05:50:30.814Z,13.49
2018-06-13T05:51:30.696Z,13.43
2018-06-13T05:52:30.519Z,13.45
2018-06-13T05:53:30.430Z,13.57
2018-06-13T05:54:30.406Z,13.53
2018-06-13T05:55:30.404Z,13.43
2018-06-13T05:56:30.681Z,13.45
2018-06-13T05:57:30.358Z,13.49
2018-06-13T05:58:30.460Z,13.57
2018-06-13T05:59:30.505Z,13.63
2018-06-13T06:00:30.312Z,13.58
2018-06-13T06:01:30.320Z,13.55
2018-06-13T06:02:30.277Z,13.53
2018-06-13T06:03:30.565Z,13.64
2018-06-13T06:04:30.303Z,13.61
2018-06-13T06:05:30.236Z,13.55
2018-06-13T06:06:30.219Z,13.64
2018-06-13T06:07:30.204Z,13.64
2018-06-13T06:08:30.181Z,13.63
2018-06-13T06:09:30.473Z,13.60
2018-06-13T06:10:30.320Z,13.53
2018-06-13T06:11:30.241Z,13.61
2018-06-13T06:12:30.122Z,13.46
2018-06-13T06:13:30.105Z,13.58
2018-06-13T06:14:30.094Z,13.55
2018-06-13T06:15:30.098Z,13.51
2018-06-13T06:16:30.512Z,13.55
2018-06-13T06:17:30.042Z,13.54
2018-06-13T06:18:30.029Z,13.54
2018-06-13T06:19:30.012Z,13.61
2018-06-13T06:20:30.088Z,13.58
2018-06-13T06:21:30.184Z,13.61
2018-06-13T06:22:30.017Z,13.61
2018-06-13T06:23:30.436Z,13.67
2018-06-13T06:24:29.942Z,13.79
2018-06-13T06:25:29.926Z,13.72
2018-06-13T06:26:29.921Z,13.72
2018-06-13T06:27:29.906Z,13.79
2018-06-13T06:28:29.934Z,13.76
2018-06-13T06:29:30.004Z,13.76
2018-06-13T06:30:30.144Z,13.79
2018-06-13T06:31:29.829Z,13.88
2018-06-13T06:32:30.042Z,13.90
2018-06-13T06:33:29.794Z,13.90
2018-06-13T06:34:29.829Z,13.97
2018-06-13T06:35:29.768Z,13.93
2018-06-13T06:36:29.748Z,13.91
2018-06-13T06:37:30.054Z,13.98
2018-06-13T06:38:29.717Z,14.03
2018-06-13T06:39:29.711Z,14.00
2018-06-13T06:41:29.688Z,14.03
2018-06-13T06:42:29.673Z,14.01
2018-06-13T06:43:29.656Z,14.05
2018-06-13T06:44:29.935Z,14.08
2018-06-13T06:45:29.866Z,14.05
2018-06-13T06:46:29.649Z,14.09
2018-06-13T06:47:29.580Z,14.11
2018-06-13T06:48:29.593Z,14.22
2018-06-13T06:49:29.566Z,14.27
2018-06-13T06:50:29.547Z,14.34
2018-06-13T06:51:29.822Z,14.51
2018-06-13T06:52:29.585Z,14.53
2018-06-13T06:53:29.499Z,14.46
2018-06-13T06:54:29.481Z,14.38
2018-06-13T06:55:29.513Z,14.34
2018-06-13T06:56:29.460Z,14.31
2018-06-13T06:57:29.431Z,14.44
2018-06-13T06:58:29.920Z,14.52
2018-06-13T06:59:29.408Z,14.51
2018-06-13T07:00:29.417Z,14.51
2018-06-13T07:01:29.376Z,14.59
2018-06-13T07:02:29.364Z,14.64
2018-06-13T07:03:29.432Z,14.59
2018-06-13T07:04:29.389Z,14.66
2018-06-13T07:05:30.024Z,14.70
2018-06-13T07:06:29.346Z,14.78
2018-06-13T07:07:29.353Z,14.87
2018-06-13T07:08:29.271Z,15.05
2018-06-13T07:09:29.257Z,14.95
2018-06-13T07:10:29.305Z,15.05
2018-06-13T07:11:29.533Z,15.01
2018-06-13T07:12:29.215Z,15.23
2018-06-13T07:13:29.199Z,15.11
2018-06-13T07:14:29.192Z,15.07
2018-06-13T07:15:29.173Z,14.99
2018-06-13T07:16:29.208Z,15.03
2018-06-13T07:17:29.451Z,14.96
2018-06-13T07:18:31.277Z,15.01
2018-06-13T07:19:29.135Z,15.11
2018-06-13T07:20:29.102Z,15.25
2018-06-13T07:21:29.085Z,15.22
2018-06-13T07:22:29.128Z,15.29
2018-06-13T07:23:29.067Z,15.38
2018-06-13T07:24:31.298Z,15.43
2018-06-13T07:27:29.001Z,15.33
2018-06-13T07:28:29.057Z,15.43
2018-06-13T07:29:28.975Z,15.54
2018-06-13T07:30:29.263Z,15.62
2018-06-13T07:31:28.959Z,15.59
2018-06-13T07:32:28.960Z,15.70
2018-06-13T07:33:28.921Z,15.60
2018-06-13T07:34:28.974Z,15.78
2018-06-13T07:35:28.913Z,15.85
2018-06-13T07:36:29.178Z,15.77
2018-06-13T07:37:28.868Z,15.81
2018-06-13T07:38:28.857Z,15.84
2018-06-13T07:39:28.843Z,15.99
2018-06-13T07:40:28.878Z,15.95
2018-06-13T07:41:28.839Z,16.10
2018-06-13T07:42:28.800Z,15.80
2018-06-13T07:43:29.094Z,15.78
2018-06-13T07:44:28.777Z,15.84
2018-06-13T07:45:28.765Z,15.90
2018-06-13T07:46:28.819Z,16.05
2018-06-13T07:47:28.741Z,15.99
2018-06-13T07:48:28.731Z,15.98
2018-06-13T07:49:28.719Z,15.90
2018-06-13T07:50:28.998Z,15.99
2018-06-13T07:51:28.687Z,16.02
2018-06-13T07:52:28.723Z,16.09
2018-06-13T07:53:28.687Z,16.13
2018-06-13T07:54:28.647Z,16.18
2018-06-13T07:55:28.640Z,16.16
2018-06-13T07:56:28.624Z,16.06
2018-06-13T07:57:29.118Z,16.03
2018-06-13T07:58:31.068Z,16.22
2018-06-13T07:59:28.606Z,16.32
2018-06-13T08:00:28.894Z,16.44
2018-06-13T08:01:28.563Z,16.39
2018-06-13T08:02:28.550Z,16.26
2018-06-13T08:03:28.852Z,16.40
2018-06-13T08:05:28.559Z,16.33
2018-06-13T08:06:28.498Z,16.43
2018-06-13T08:07:28.494Z,16.39
2018-06-13T08:08:28.621Z,16.47
2018-06-13T08:10:28.753Z,16.29
2018-06-13T08:11:28.496Z,16.32
2018-06-13T08:12:28.431Z,16.54
2018-06-13T08:14:28.414Z,17.06
2018-06-13T08:15:28.406Z,16.91
2018-06-13T08:16:28.433Z,16.77
2018-06-13T08:17:28.821Z,16.88
2018-06-13T08:18:28.363Z,16.91
2018-06-13T08:19:28.423Z,16.84
2018-06-13T08:20:28.328Z,16.88
2018-06-13T08:21:28.318Z,16.98
2018-06-13T08:22:28.323Z,16.92
2018-06-13T08:23:28.359Z,17.27
2018-06-13T08:25:28.635Z,17.54
2018-06-13T08:26:28.258Z,17.54
2018-06-13T08:27:28.463Z,17.45
2018-06-13T08:28:28.277Z,17.24
2018-06-13T08:29:28.306Z,17.49
2018-06-13T08:30:28.681Z,17.47
2018-06-13T08:31:29.435Z,17.49
2018-06-13T08:32:28.627Z,17.53
2018-06-13T08:33:28.550Z,17.59
2018-06-13T08:34:28.173Z,17.56
2018-06-13T08:35:28.213Z,17.39
2018-06-13T08:36:28.149Z,17.50
2018-06-13T08:37:28.155Z,17.59
2018-06-13T08:38:28.433Z,17.63
2018-06-13T08:40:28.104Z,17.62
2018-06-13T08:41:28.145Z,17.49
2018-06-13T08:42:28.084Z,17.43
2018-06-13T08:43:28.123Z,17.30
2018-06-13T08:44:28.363Z,17.02
2018-06-13T08:46:28.057Z,16.82
2018-06-13T08:47:28.350Z,16.92
2018-06-13T08:48:28.548Z,16.87
2018-06-13T08:49:28.941Z,16.83
2018-06-13T08:50:28.868Z,16.74
2018-06-13T08:51:28.429Z,16.69
2018-06-13T08:52:28.435Z,16.69
2018-06-13T08:53:27.958Z,16.61
2018-06-13T08:54:27.938Z,16.65
2018-06-13T08:55:27.938Z,16.59
2018-06-13T08:56:28.234Z,16.64
2018-06-13T08:57:27.910Z,16.61
2018-06-13T08:58:27.955Z,16.61
2018-06-13T08:59:27.885Z,16.58
2018-06-13T09:00:27.881Z,16.52
2018-06-13T09:01:27.866Z,16.58
2018-06-13T09:02:27.889Z,16.64
2018-06-13T09:03:27.834Z,16.79
2018-06-13T09:04:27.877Z,16.74
2018-06-13T09:06:27.809Z,16.73
2018-06-13T09:07:27.828Z,16.69
2018-06-13T09:08:28.073Z,16.70
2018-06-13T09:09:27.775Z,16.69
2018-06-13T09:10:27.810Z,16.76
2018-06-13T09:11:27.740Z,16.64
2018-06-13T09:12:27.736Z,16.72
2018-06-13T09:13:27.715Z,16.65
2018-06-13T09:14:28.012Z,16.57
2018-06-13T09:15:27.690Z,16.44
2018-06-13T09:18:27.658Z,16.37
2018-06-13T09:19:27.694Z,16.34
2018-06-13T09:20:27.625Z,16.42
2018-06-13T09:21:27.910Z,16.49
2018-06-13T09:22:27.624Z,16.42
2018-06-13T09:24:27.639Z,16.54
2018-06-13T09:25:27.564Z,16.57
2018-06-13T09:26:27.611Z,16.65
2018-06-13T09:27:27.838Z,16.65
2018-06-13T09:28:27.525Z,16.74
2018-06-13T09:29:27.537Z,16.77
2018-06-13T09:30:27.554Z,16.80
2018-06-13T09:31:27.485Z,16.82
2018-06-13T09:32:27.489Z,16.91
2018-06-13T09:33:27.557Z,16.94
2018-06-13T09:34:27.755Z,16.87
2018-06-13T09:35:27.523Z,16.88
2018-06-13T09:36:27.525Z,16.97
2018-06-13T09:38:27.496Z,17.14
2018-06-13T09:39:27.658Z,17.13
2018-06-13T09:40:27.373Z,16.98
2018-06-13T09:41:27.658Z,17.06
2018-06-13T09:42:27.395Z,17.09
2018-06-13T09:43:27.348Z,17.12
2018-06-13T09:44:27.324Z,17.27
2018-06-13T09:45:27.316Z,17.17
2018-06-13T09:46:27.359Z,17.13
2018-06-13T09:47:27.290Z,17.19
2018-06-13T09:48:27.622Z,17.31
2018-06-13T09:49:27.263Z,17.27
2018-06-13T09:50:27.731Z,17.37
2018-06-13T09:51:27.242Z,17.43
2018-06-13T09:52:27.278Z,17.63
2018-06-13T09:53:27.214Z,17.62
2018-06-13T09:54:27.302Z,17.73
2018-06-13T09:55:27.506Z,17.68
2018-06-13T09:56:27.190Z,17.50
2018-06-13T09:57:27.167Z,17.46
2018-06-13T09:58:27.159Z,17.56
2018-06-13T09:59:27.143Z,17.45
2018-06-13T10:00:27.182Z,17.41
2018-06-13T10:01:27.472Z,17.30
2018-06-13T10:02:27.114Z,17.38
2018-06-13T10:03:27.106Z,17.10
2018-06-13T10:04:27.093Z,17.06
2018-06-13T10:06:27.122Z,17.06
2018-06-13T10:07:27.356Z,16.99
2018-06-13T10:08:27.052Z,17.01
2018-06-13T10:09:27.029Z,17.12
2018-06-13T10:10:27.015Z,17.25
2018-06-13T10:11:27.016Z,17.41
2018-06-13T10:12:27.059Z,17.47
2018-06-13T10:13:27.280Z,17.62
2018-06-13T10:14:26.971Z,17.63
2018-06-13T10:15:26.966Z,17.59
2018-06-13T10:16:27.026Z,17.39
2018-06-13T10:17:26.952Z,17.39
2018-06-13T10:18:26.987Z,17.25
2018-06-13T10:20:27.203Z,17.43
2018-06-13T10:22:26.880Z,17.76
2018-06-13T10:23:27.025Z,17.94
2018-06-13T10:24:26.934Z,17.97
2018-06-13T10:25:27.017Z,18.12
2018-06-13T10:26:27.135Z,18.30
2018-06-13T10:27:26.885Z,18.36
2018-06-13T10:28:27.045Z,18.23
2018-06-13T10:29:26.801Z,18.13
2018-06-13T10:30:26.843Z,18.20
2018-06-13T10:31:26.775Z,18.17
2018-06-13T10:32:27.063Z,18.20
2018-06-13T10:33:26.755Z,18.23
2018-06-13T10:34:26.743Z,18.36
2018-06-13T10:35:27.035Z,18.23
2018-06-13T10:36:26.778Z,18.33
2018-06-13T10:37:26.809Z,18.46
2018-06-13T10:38:26.699Z,18.54
2018-06-13T10:39:26.990Z,18.81
2018-06-13T10:40:26.700Z,18.88
2018-06-13T10:41:26.681Z,19.05
2018-06-13T10:42:26.717Z,19.22
2018-06-13T10:43:26.650Z,19.19
2018-06-13T10:44:26.739Z,19.08
2018-06-13T10:45:27.155Z,19.12
2018-06-13T10:46:26.696Z,19.04
2018-06-13T10:48:26.657Z,18.89
2018-06-13T10:49:26.605Z,18.91
2018-06-13T10:50:26.600Z,18.78
2018-06-13T10:51:26.875Z,18.70
2018-06-13T10:52:26.560Z,18.70
2018-06-13T10:53:26.554Z,18.49
2018-06-13T10:54:26.592Z,18.41
2018-06-13T10:55:26.545Z,18.46
2018-06-13T10:56:26.518Z,18.46
2018-06-13T10:57:26.505Z,18.38
2018-06-13T10:58:26.496Z,18.34
2018-06-13T10:59:26.498Z,18.31
2018-06-13T11:00:26.529Z,18.39
2018-06-13T11:01:26.490Z,18.12
2018-06-13T11:02:26.455Z,18.08
2018-06-13T11:03:26.748Z,17.99
2018-06-13T11:04:26.445Z,17.94
2018-06-13T11:05:26.434Z,17.93
2018-06-13T11:06:26.468Z,17.97
2018-06-13T11:07:26.404Z,18.17
2018-06-13T11:08:26.394Z,18.12
2018-06-13T11:09:26.708Z,18.13
2018-06-13T11:10:26.376Z,18.03
2018-06-13T11:11:26.394Z,18.09
2018-06-13T11:12:26.399Z,18.06
2018-06-13T11:13:26.367Z,18.15
2018-06-13T11:14:26.336Z,18.15
2018-06-13T11:15:26.320Z,18.31
2018-06-13T11:16:26.609Z,18.43
2018-06-13T11:17:26.295Z,18.43
2018-06-13T11:19:26.397Z,18.81
2018-06-13T11:20:26.286Z,19.04
2018-06-13T11:21:26.255Z,19.13
2018-06-13T11:23:26.533Z,19.20
2018-06-13T11:24:26.229Z,18.86
2018-06-13T11:25:26.263Z,18.70
2018-06-13T11:26:26.202Z,18.58
2018-06-13T11:27:26.245Z,18.39
2018-06-13T11:28:26.207Z,18.33
2018-06-13T11:29:26.486Z,18.42
2018-06-13T11:30:26.234Z,18.48
2018-06-13T11:31:26.251Z,18.57
2018-06-13T11:33:26.138Z,18.43
2018-06-13T11:34:26.132Z,18.56
2018-06-13T11:35:26.415Z,18.74
2018-06-13T11:36:26.101Z,18.63
2018-06-13T11:37:26.138Z,18.60
2018-06-13T11:38:26.075Z,18.54
2018-06-13T11:39:26.069Z,18.38
2018-06-13T11:40:26.053Z,18.42
2018-06-13T11:41:26.380Z,18.24
2018-06-13T11:42:26.040Z,18.26
2018-06-13T11:43:26.074Z,18.08
2018-06-13T11:44:26.020Z,18.01
2018-06-13T11:45:26.264Z,17.99
2018-06-13T11:46:26.104Z,18.03
2018-06-13T11:47:26.283Z,17.87
2018-06-13T11:48:25.968Z,17.99
2018-06-13T11:49:26.011Z,18.01
2018-06-13T11:50:25.953Z,18.08
2018-06-13T11:51:25.944Z,18.18
2018-06-13T11:52:25.936Z,18.24
2018-06-13T11:53:26.216Z,18.56
2018-06-13T11:54:25.918Z,18.67
2018-06-13T11:55:25.945Z,18.86
2018-06-13T11:56:25.882Z,19.23
2018-06-13T11:57:28.878Z,19.31
2018-06-13T11:58:25.871Z,19.19
2018-06-13T11:59:25.857Z,19.22
2018-06-13T12:00:26.221Z,18.96
2018-06-13T12:01:25.959Z,18.78
2018-06-13T12:02:25.820Z,18.88
2018-06-13T12:03:25.823Z,19.07
2018-06-13T12:04:25.881Z,19.16
2018-06-13T12:05:25.867Z,19.22
2018-06-13T12:06:26.089Z,19.42
2018-06-13T12:07:25.820Z,19.44
2018-06-13T12:08:25.771Z,19.38
2018-06-13T12:09:25.750Z,19.42
2018-06-13T12:10:25.749Z,19.41
2018-06-13T12:11:25.731Z,19.35
2018-06-13T12:12:26.043Z,19.30
2018-06-13T12:13:25.767Z,19.34
2018-06-13T12:14:25.708Z,19.24
2018-06-13T12:15:25.701Z,19.44
2018-06-13T12:16:25.711Z,19.56
2018-06-13T12:17:25.693Z,19.74
2018-06-13T12:19:26.007Z,19.93
2018-06-13T12:20:25.655Z,20.25
2018-06-13T12:21:25.639Z,20.19
2018-06-13T12:23:25.619Z,20.00
2018-06-13T12:24:25.631Z,19.93
2018-06-13T12:25:25.656Z,19.70
2018-06-13T12:26:25.895Z,19.49
2018-06-13T12:27:25.589Z,19.39
2018-06-13T12:28:25.588Z,19.60
2018-06-13T12:29:25.568Z,19.38
2018-06-13T12:30:25.556Z,19.34
2018-06-13T12:31:25.633Z,19.62
2018-06-13T12:36:25.516Z,20.33
2018-06-13T12:37:25.564Z,20.26
2018-06-13T12:39:26.186Z,20.23
2018-06-13T12:40:25.554Z,20.17
2018-06-13T12:41:25.541Z,20.23
2018-06-13T12:42:25.475Z,19.63
2018-06-13T12:43:25.511Z,19.50
2018-06-13T12:44:25.439Z,19.19
2018-06-13T12:45:25.471Z,19.12
2018-06-13T12:46:25.733Z,18.71
2018-06-13T12:47:25.415Z,18.68
2018-06-13T12:48:25.478Z,18.33
2018-06-13T12:49:25.445Z,18.38
2018-06-13T12:50:25.458Z,18.36
2018-06-13T12:51:25.380Z,18.49
2018-06-13T12:52:25.667Z,18.42
2018-06-13T12:53:25.376Z,18.46
2018-06-13T12:54:25.355Z,18.33
2018-06-13T12:55:25.387Z,18.20
2018-06-13T12:56:25.327Z,18.31
2018-06-13T12:57:25.324Z,18.12
2018-06-13T12:58:25.621Z,18.21
2018-06-13T12:59:25.305Z,18.13
2018-06-13T13:00:25.292Z,18.31
2018-06-13T13:02:25.319Z,18.18
2018-06-13T13:03:25.258Z,18.13
2018-06-13T13:04:25.249Z,18.06
2018-06-13T13:05:25.244Z,18.05
2018-06-13T13:06:25.312Z,18.06
2018-06-13T13:07:25.307Z,17.99
2018-06-13T13:08:26.007Z,18.15
2018-06-13T13:09:25.501Z,18.21
2018-06-13T13:10:26.415Z,18.33
2018-06-13T13:11:25.483Z,18.36
2018-06-13T13:12:25.168Z,18.48
2018-06-13T13:13:25.219Z,18.60
2018-06-13T13:14:25.200Z,18.48
2018-06-13T13:15:25.196Z,18.36
2018-06-13T13:16:25.123Z,18.12
2018-06-13T13:17:25.429Z,18.08
2018-06-13T13:18:25.107Z,18.26
2018-06-13T13:19:25.126Z,18.20
2018-06-13T13:20:25.211Z,18.12
2018-06-13T13:21:25.197Z,18.20
2018-06-13T13:22:25.065Z,18.46
2018-06-13T13:23:25.350Z,18.71
2018-06-13T13:24:25.041Z,18.70
2018-06-13T13:25:25.033Z,18.54
2018-06-13T13:26:25.069Z,18.58
2018-06-13T13:28:25.068Z,18.88
2018-06-13T13:30:25.305Z,19.13
2018-06-13T13:31:24.970Z,19.17
2018-06-13T13:32:25.013Z,19.38
2018-06-13T13:33:24.961Z,19.47
2018-06-13T13:34:24.936Z,19.41
2018-06-13T13:35:25.010Z,19.53
2018-06-13T13:36:25.277Z,19.26
2018-06-13T13:38:24.952Z,19.56
2018-06-13T13:39:24.887Z,19.64